Time;durP1;ratioP1;P1;durP2;ratioP2;P2;SDS_P1;SDS_P2;PMS_P1;PMS_P2;Temp;Humidity;BMP_temperature;BMP_pressure;BME280_temperature;BME280_humidity;BME280_pressure;Samples;Min_cycle;Max_cycle;Signal;HPM_P1;HPM_P2
2023/06/10 00:00:15;;;;;;;13.35;6.12;;;;;;;19.37;50.02;100484.09;1736760;82;21366;-56
2023/06/10 00:03:23;;;;;;;12.30;5.72;;;;;;;19.36;50.06;100476.84;1736483;82;21393;-56
2023/06/10 00:06:35;;;;;;;11.00;5.33;;;;;;;19.33;50.06;100473.44;1736430;82;21413;-56
2023/06/10 00:09:38;;;;;;;10.00;5.00;;;;;;;19.30;50.03;100469.74;1737197;82;21219;-56
2023/06/10 00:12:44;;;;;;;10.48;5.47;;;;;;;19.29;50.10;100469.98;1734739;82;21338;-56
2023/06/10 00:15:50;;;;;;;11.40;5.05;;;;;;;19.28;50.18;100470.50;1733899;83;22063;-56
2023/06/10 00:19:02;;;;;;;11.65;5.60;;;;;;;19.27;50.15;100463.23;1720100;81;21453;-56
2023/06/10 00:22:06;;;;;;;10.43;5.30;;;;;;;19.21;50.13;100459.13;1733787;83;21402;-55
2023/06/10 00:25:17;;;;;;;12.55;5.33;;;;;;;19.16;50.13;100452.89;1733651;83;21370;-56
2023/06/10 00:28:24;;;;;;;13.90;5.15;;;;;;;19.10;50.17;100444.10;1733772;81;21382;-55
2023/06/10 00:31:23;;;;;;;14.07;5.62;;;;;;;19.09;50.33;100447.11;1733989;82;21330;-55
2023/06/10 00:34:30;;;;;;;17.07;5.78;;;;;;;19.07;50.43;100452.89;1733962;83;21250;-55
2023/06/10 00:37:35;;;;;;;9.43;5.30;;;;;;;19.04;50.47;100440.00;1733831;83;21732;-54
2023/06/10 00:40:46;;;;;;;9.08;5.08;;;;;;;19.00;50.50;100445.16;1733945;83;21251;-55
2023/06/10 00:43:52;;;;;;;8.55;5.65;;;;;;;18.98;50.56;100443.70;1733923;83;21207;-55
2023/06/10 00:47:00;;;;;;;10.10;5.03;;;;;;;18.94;50.68;100440.53;1734011;83;21184;-55
2023/06/10 00:50:07;;;;;;;12.25;5.30;;;;;;;18.90;50.68;100444.82;1733937;83;21722;-55
2023/06/10 00:53:12;;;;;;;10.85;5.05;;;;;;;18.87;50.71;100441.12;1733885;83;21199;-55
2023/06/10 00:56:18;;;;;;;10.68;5.25;;;;;;;18.83;50.80;100432.95;1733997;83;21199;-54
2023/06/10 00:59:27;;;;;;;10.58;5.50;;;;;;;18.82;50.88;100435.41;1734055;83;21216;-55
2023/06/10 01:02:33;;;;;;;10.43;5.67;;;;;;;18.79;50.95;100436.42;1733806;83;21255;-56
2023/06/10 01:05:41;;;;;;;10.10;5.97;;;;;;;18.78;51.03;100441.11;1733819;83;21235;-54
2023/06/10 01:08:55;;;;;;;9.00;5.33;;;;;;;18.76;51.10;100443.78;1733784;83;21256;-54
2023/06/10 01:12:33;;;;;;;11.15;5.50;;;;;;;18.75;51.25;100442.95;1733984;82;21244;-56
2023/06/10 01:15:27;;;;;;;10.13;5.10;;;;;;;18.76;51.35;100436.84;1689940;83;21191;-56
2023/06/10 01:18:39;;;;;;;10.90;5.45;;;;;;;18.74;51.36;100439.02;1696080;83;21361;-56
2023/06/10 01:21:48;;;;;;;9.83;5.10;;;;;;;18.73;51.46;100442.33;1696172;84;21330;-56
2023/06/10 01:24:57;;;;;;;14.47;5.40;;;;;;;18.70;51.45;100439.15;1696122;84;21365;-55
2023/06/10 01:28:29;;;;;;;9.45;5.50;;;;;;;18.67;51.44;100442.38;1696133;84;21859;-55
2023/06/10 01:31:51;;;;;;;10.13;5.37;;;;;;;18.63;51.43;100436.43;1696380;83;21358;-57
2023/06/10 01:34:58;;;;;;;10.73;6.00;;;;;;;18.61;51.52;100438.60;1696483;84;21219;-55
2023/06/10 01:38:04;;;;;;;11.12;5.75;;;;;;;18.57;51.67;100435.95;1696115;83;21350;-54
2023/06/10 01:41:10;;;;;;;8.70;5.70;;;;;;;18.55;51.68;100438.09;1696516;83;21373;-54
2023/06/10 01:44:17;;;;;;;10.72;4.90;;;;;;;18.54;51.76;100446.11;1696490;84;21710;-53
2023/06/10 01:47:23;;;;;;;14.18;5.25;;;;;;;18.50;51.83;100436.56;1696193;84;21351;-55
2023/06/10 01:50:29;;;;;;;12.98;6.12;;;;;;;18.47;51.91;100435.60;1696141;84;21725;-54
2023/06/10 01:53:36;;;;;;;13.18;5.37;;;;;;;18.46;51.95;100438.60;1696115;84;21867;-54
2023/06/10 01:56:43;;;;;;;12.00;5.58;;;;;;;18.42;52.04;100443.77;1695872;83;21373;-57
2023/06/10 01:59:50;;;;;;;13.30;5.97;;;;;;;18.41;52.12;100442.05;1696108;84;21385;-56
2023/06/10 02:02:59;;;;;;;12.00;5.65;;;;;;;18.40;52.13;100445.05;1696223;83;21906;-55
2023/06/10 02:06:06;;;;;;;10.78;5.62;;;;;;;18.35;52.10;100445.70;1695948;84;21346;-55
2023/06/10 02:09:13;;;;;;;16.17;6.00;;;;;;;18.32;52.11;100446.67;1696101;84;21874;-56
2023/06/10 02:12:22;;;;;;;10.85;5.62;;;;;;;18.29;52.17;100439.67;1699244;82;21816;-55
2023/06/10 02:15:27;;;;;;;14.65;5.62;;;;;;;18.30;52.28;100446.08;1738837;82;21200;-55
2023/06/10 02:18:33;;;;;;;19.95;6.58;;;;;;;18.29;52.33;100449.38;1738948;82;21401;-55
2023/06/10 02:21:39;;;;;;;13.55;5.37;;;;;;;18.28;52.40;100444.91;1738870;82;21369;-54
2023/06/10 02:24:45;;;;;;;19.12;6.25;;;;;;;18.29;52.46;100445.74;1738515;82;21362;-55
2023/06/10 02:27:51;;;;;;;13.15;6.58;;;;;;;18.30;52.54;100446.08;1738842;81;21866;-55
2023/06/10 02:30:59;;;;;;;11.90;6.10;;;;;;;18.31;52.64;100444.99;1725960;81;21197;-55
2023/06/10 02:34:05;;;;;;;16.60;5.97;;;;;;;18.34;52.74;100445.92;1700246;84;21238;-55
2023/06/10 02:37:12;;;;;;;16.05;6.42;;;;;;;18.36;52.80;100445.17;1700065;84;21299;-55
2023/06/10 02:40:19;;;;;;;14.80;5.67;;;;;;;18.36;52.79;100447.38;1700118;84;21260;-55
2023/06/10 02:43:26;;;;;;;17.85;6.03;;;;;;;18.38;52.77;100444.42;1700070;84;21283;-55
2023/06/10 02:46:33;;;;;;;14.60;6.40;;;;;;;18.37;52.83;100447.72;1700531;84;21260;-55
2023/06/10 02:49:41;;;;;;;10.50;6.05;;;;;;;18.41;52.91;100452.31;1700625;83;21264;-55
2023/06/10 02:52:47;;;;;;;9.13;5.90;;;;;;;18.45;52.97;100455.80;1700452;84;21211;-54
2023/06/10 02:55:52;;;;;;;14.75;6.00;;;;;;;18.50;53.02;100457.88;1700165;84;21849;-54
2023/06/10 02:58:58;;;;;;;14.03;6.35;;;;;;;18.56;53.12;100452.30;1700163;84;21299;-55
2023/06/10 03:02:03;;;;;;;12.43;5.95;;;;;;;18.63;53.14;100453.06;1682316;84;21189;-55
2023/06/10 03:05:13;;;;;;;13.32;6.28;;;;;;;18.70;53.18;100448.33;1700196;84;21228;-56
2023/06/10 03:08:19;;;;;;;15.45;7.65;;;;;;;18.80;53.21;100448.67;1700438;84;21197;-55
2023/06/10 03:11:29;;;;;;;13.72;7.03;;;;;;;18.84;53.18;100449.90;1700272;83;21337;-54
2023/06/10 03:14:38;;;;;;;16.07;7.10;;;;;;;18.91;53.22;100449.31;1696174;84;21370;-54
2023/06/10 03:17:45;;;;;;;13.80;7.35;;;;;;;18.97;53.27;100451.17;1696137;84;21343;-54
2023/06/10 03:20:46;;;;;;;17.12;7.58;;;;;;;19.01;53.35;100442.69;1700761;82;21896;-56
2023/06/10 03:23:40;;;;;;;12.80;6.80;;;;;;;19.07;53.39;100440.94;1738311;82;22010;-54
2023/06/10 03:26:46;;;;;;;11.43;6.95;;;;;;;19.12;53.43;100444.70;1739152;82;21323;-54
2023/06/10 03:29:53;;;;;;;16.65;7.10;;;;;;;19.15;53.35;100446.19;1739422;81;21209;-54
2023/06/10 03:33:00;;;;;;;15.48;6.33;;;;;;;19.16;53.36;100440.94;1740170;82;21378;-54
2023/06/10 03:36:07;;;;;;;10.82;6.37;;;;;;;19.21;53.41;100436.93;1738675;82;21962;-54
2023/06/10 03:39:14;;;;;;;13.78;6.72;;;;;;;19.27;53.48;100449.36;1739032;81;21327;-55
2023/06/10 03:42:20;;;;;;;11.15;5.53;;;;;;;19.36;53.50;100443.53;1739652;82;21895;-55
2023/06/10 03:45:28;;;;;;;7.30;5.12;;;;;;;19.45;53.55;100440.74;1740100;82;21891;-55
2023/06/10 03:48:37;;;;;;;11.20;6.37;;;;;;;19.51;53.52;100433.72;1739609;82;21406;-55
2023/06/10 03:51:43;;;;;;;15.75;5.75;;;;;;;19.59;53.53;100440.88;1739679;82;21358;-55
2023/06/10 03:54:50;;;;;;;11.43;5.65;;;;;;;19.65;53.53;100440.80;1739544;81;21875;-55
2023/06/10 03:57:58;;;;;;;9.58;5.50;;;;;;;19.71;53.56;100437.66;1739844;82;21339;-55
2023/06/10 04:01:04;;;;;;;11.33;5.67;;;;;;;19.79;53.60;100432.59;1740450;82;21358;-56
2023/06/10 04:04:11;;;;;;;11.00;5.58;;;;;;;19.87;53.59;100431.45;1736282;82;21402;-56
2023/06/10 04:07:20;;;;;;;12.73;5.97;;;;;;;19.94;53.67;100437.22;1730284;81;21203;-56
2023/06/10 04:10:28;;;;;;;10.93;5.62;;;;;;;20.01;53.66;100433.78;1718081;83;21283;-55
2023/06/10 04:13:35;;;;;;;10.38;5.53;;;;;;;20.06;53.66;100437.27;1700196;82;21377;-56
2023/06/10 04:16:42;;;;;;;12.45;5.80;;;;;;;20.14;53.70;100441.11;1713769;82;21393;-57
2023/06/10 04:19:48;;;;;;;10.40;6.03;;;;;;;20.22;53.73;100437.47;1713298;84;21910;-55
2023/06/10 04:22:55;;;;;;;12.00;5.92;;;;;;;20.30;53.81;100435.73;1713825;82;21369;-57
2023/06/10 04:26:02;;;;;;;8.48;5.92;;;;;;;20.42;53.87;100433.00;1713012;84;21442;-56
2023/06/10 04:29:09;;;;;;;13.72;6.37;;;;;;;20.52;53.90;100438.27;1713349;83;21381;-56
2023/06/10 04:32:16;;;;;;;14.87;6.15;;;;;;;20.64;53.94;100437.73;1712782;84;21406;-56
2023/06/10 04:35:23;;;;;;;9.53;6.42;;;;;;;20.76;53.98;100439.14;1730191;82;21298;-56
2023/06/10 04:38:30;;;;;;;15.90;6.33;;;;;;;20.88;54.00;100435.84;1712419;84;21362;-55
2023/06/10 04:41:38;;;;;;;11.88;5.97;;;;;;;20.99;54.02;100439.20;1712924;84;21985;-57
2023/06/10 04:44:45;;;;;;;20.12;9.13;;;;;;;21.11;54.02;100440.03;1714054;82;21377;-56
2023/06/10 04:47:55;;;;;;;15.00;6.70;;;;;;;21.24;54.02;100438.94;1738339;82;21420;-55
2023/06/10 04:51:01;;;;;;;9.93;5.95;;;;;;;21.38;54.00;100443.15;1738473;82;21244;-55
2023/06/10 04:54:07;;;;;;;13.28;6.37;;;;;;;21.48;54.01;100441.99;1738230;82;21234;-56
2023/06/10 04:57:14;;;;;;;10.50;6.75;;;;;;;21.59;54.00;100444.77;1708577;83;21227;-54
2023/06/10 05:00:20;;;;;;;10.98;6.58;;;;;;;21.70;53.93;100442.49;1708224;83;21612;-57
2023/06/10 05:03:25;;;;;;;13.85;6.72;;;;;;;21.81;53.89;100440.78;1692982;82;21243;-55
2023/06/10 05:06:31;;;;;;;11.03;6.85;;;;;;;21.93;53.86;100438.79;1708735;84;21267;-56
2023/06/10 05:09:37;;;;;;;17.52;7.08;;;;;;;22.04;53.80;100442.94;1708664;83;21223;-55
2023/06/10 05:12:43;;;;;;;11.73;6.70;;;;;;;22.15;53.76;100439.24;1709192;84;21260;-55
2023/06/10 05:15:49;;;;;;;8.78;5.92;;;;;;;22.27;53.70;100442.52;1706047;83;21894;-53
2023/06/10 05:18:56;;;;;;;12.13;6.45;;;;;;;22.37;53.63;100440.79;1707107;84;21446;-55
2023/06/10 05:22:03;;;;;;;22.70;7.50;;;;;;;22.48;53.60;100439.02;1707180;83;21339;-56
2023/06/10 05:25:12;;;;;;;12.80;7.45;;;;;;;22.60;53.58;100437.02;1707246;84;21362;-56
2023/06/10 05:28:18;;;;;;;18.35;9.13;;;;;;;22.70;53.51;100432.47;1706666;84;21373;-57
2023/06/10 05:31:24;;;;;;;17.73;8.18;;;;;;;22.81;53.42;100433.48;1706880;84;21377;-56
2023/06/10 05:34:31;;;;;;;12.07;7.15;;;;;;;22.94;53.40;100440.13;1706721;83;21385;-56
2023/06/10 05:37:37;;;;;;;13.65;7.03;;;;;;;23.05;53.34;100437.78;1706515;84;21421;-54
2023/06/10 05:40:43;;;;;;;15.23;8.20;;;;;;;23.17;53.29;100430.13;1706953;83;21350;-55
2023/06/10 05:43:49;;;;;;;15.80;7.25;;;;;;;23.28;53.14;100432.86;1718558;82;21382;-56
2023/06/10 05:46:56;;;;;;;15.90;7.35;;;;;;;23.38;53.08;100422.38;1733911;82;21411;-56
2023/06/10 05:50:06;;;;;;;10.78;6.28;;;;;;;23.48;52.96;100423.36;1706656;84;21373;-55
2023/06/10 05:53:14;;;;;;;13.32;7.00;;;;;;;23.57;52.84;100430.75;1706661;84;21354;-55
2023/06/10 05:56:22;;;;;;;14.65;8.05;;;;;;;23.71;52.84;100431.19;1706743;84;21228;-57
2023/06/10 05:59:28;;;;;;;16.15;8.60;;;;;;;23.82;52.75;100425.47;1706796;84;21887;-53
2023/06/10 06:02:35;;;;;;;13.40;6.05;;;;;;;23.89;52.53;100417.74;1706772;84;21369;-55
2023/06/10 06:05:43;;;;;;;11.12;5.53;;;;;;;24.01;52.39;100425.45;1706463;84;21237;-55
2023/06/10 06:08:48;;;;;;;9.60;5.42;;;;;;;24.12;52.26;100420.84;1706033;84;21442;-57
2023/06/10 06:11:49;;;;;;;11.28;5.53;;;;;;;24.19;52.10;100420.91;1706716;84;21374;-56
2023/06/10 06:14:50;;;;;;;10.93;5.50;;;;;;;24.28;51.91;100415.12;1706069;84;21886;-56
2023/06/10 06:17:58;;;;;;;12.10;6.00;;;;;;;24.38;51.80;100418.03;1684084;85;21235;-55
2023/06/10 06:21:04;;;;;;;11.85;5.40;;;;;;;24.47;51.59;100414.17;1695689;83;21833;-55
2023/06/10 06:24:12;;;;;;;8.63;5.45;;;;;;;24.54;51.47;100417.07;1679023;84;21325;-56
2023/06/10 06:27:18;;;;;;;11.05;5.40;;;;;;;24.58;51.26;100418.75;1679222;85;21263;-56
2023/06/10 06:30:24;;;;;;;11.35;6.35;;;;;;;24.63;51.07;100416.01;1679143;84;22014;-55
2023/06/10 06:33:30;;;;;;;10.15;6.03;;;;;;;24.69;50.92;100407.42;1665915;85;21768;-55
2023/06/10 06:36:36;;;;;;;12.33;6.30;;;;;;;24.78;50.79;100409.18;1665944;86;21407;-55
2023/06/10 06:39:43;;;;;;;16.85;6.25;;;;;;;24.88;50.60;100403.09;1664192;85;21248;-55
2023/06/10 06:42:50;;;;;;;12.40;6.28;;;;;;;25.01;50.46;100398.98;1639331;85;21251;-54
2023/06/10 06:46:14;;;;;;;8.45;5.80;;;;;;;25.14;50.35;100404.12;1702353;83;21326;-57
2023/06/10 06:49:20;;;;;;;10.03;6.08;;;;;;;25.29;50.17;100402.80;1670515;84;21216;-55
2023/06/10 06:52:25;;;;;;;15.28;6.40;;;;;;;25.38;49.96;100397.56;1715484;82;21307;-54
2023/06/10 06:55:30;;;;;;;10.08;6.17;;;;;;;25.47;49.78;100393.11;1681214;84;21219;-55
2023/06/10 06:58:36;;;;;;;8.45;6.47;;;;;;;25.58;49.55;100399.05;1665487;86;21602;-55
2023/06/10 07:01:43;;;;;;;7.95;5.92;;;;;;;25.68;49.37;100396.30;1664655;85;21757;-55
2023/06/10 07:04:55;;;;;;;10.53;6.35;;;;;;;25.78;49.20;100397.75;1663222;86;21283;-55
2023/06/10 07:08:00;;;;;;;8.80;4.60;;;;;;;25.87;48.96;100386.27;1663100;85;21229;-54
2023/06/10 07:11:07;;;;;;;11.20;5.45;;;;;;;25.96;48.69;100394.43;1663424;86;21217;-55
2023/06/10 07:14:13;;;;;;;12.25;5.35;;;;;;;26.05;48.44;100387.22;1663286;86;21237;-54
2023/06/10 07:17:18;;;;;;;10.10;5.92;;;;;;;26.13;48.25;100384.69;1666926;83;21232;-54
2023/06/10 07:20:25;;;;;;;8.15;5.37;;;;;;;26.22;48.00;100383.05;1667657;86;21252;-56
2023/06/10 07:23:31;;;;;;;8.33;5.05;;;;;;;26.32;47.73;100385.84;1653975;86;21807;-57
2023/06/10 07:26:37;;;;;;;8.38;5.17;;;;;;;26.45;47.55;100376.02;1680353;85;21974;-57
2023/06/10 07:29:42;;;;;;;11.45;5.30;;;;;;;26.61;47.28;100381.11;1730921;83;21280;-54
2023/06/10 07:32:51;;;;;;;12.15;5.05;;;;;;;26.77;47.12;100378.03;1731044;83;21256;-54
2023/06/10 07:35:57;;;;;;;8.88;4.65;;;;;;;26.94;46.80;100378.56;1731336;82;21526;-56
2023/06/10 07:39:02;;;;;;;8.70;4.87;;;;;;;27.08;46.43;100371.27;1731617;83;21958;-56
2023/06/10 07:42:09;;;;;;;8.35;4.60;;;;;;;27.21;46.13;100374.86;1730905;83;21204;-55
2023/06/10 07:45:16;;;;;;;11.90;4.37;;;;;;;27.39;45.95;100372.03;1731268;83;21224;-57
2023/06/10 07:48:24;;;;;;;8.33;4.47;;;;;;;27.55;45.67;100370.86;1733563;82;21250;-56
2023/06/10 07:51:30;;;;;;;9.03;4.00;;;;;;;27.69;45.32;100374.73;1738558;82;21238;-57
2023/06/10 07:54:38;;;;;;;9.00;3.92;;;;;;;27.82;44.90;100370.74;1738879;82;21218;-57
2023/06/10 07:57:45;;;;;;;9.58;3.83;;;;;;;27.93;44.59;100360.84;1738981;82;21420;-56
2023/06/10 08:00:51;;;;;;;8.35;3.92;;;;;;;28.06;44.35;100364.44;1739059;82;21337;-56
2023/06/10 08:03:56;;;;;;;5.25;3.20;;;;;;;28.27;44.17;100370.22;1710323;83;21906;-57
2023/06/10 08:07:03;;;;;;;6.75;3.52;;;;;;;28.44;43.89;100353.19;1738567;82;21214;-56
2023/06/10 08:10:09;;;;;;;7.03;3.40;;;;;;;28.57;43.41;100352.56;1730402;82;21516;-55
2023/06/10 08:13:16;;;;;;;9.08;3.17;;;;;;;28.62;43.00;100345.45;1730636;83;21231;-56
2023/06/10 08:16:23;;;;;;;4.22;2.90;;;;;;;28.66;42.63;100347.96;1731079;83;21267;-56
2023/06/10 08:19:30;;;;;;;8.55;3.58;;;;;;;28.65;42.24;100347.70;1734986;81;21364;-55
2023/06/10 08:22:37;;;;;;;7.40;3.10;;;;;;;28.59;41.79;100350.86;1736440;82;21340;-56
2023/06/10 08:25:43;;;;;;;7.92;3.72;;;;;;;28.53;41.52;100344.96;1736473;81;21905;-57
2023/06/10 08:28:48;;;;;;;5.53;3.50;;;;;;;28.46;41.27;100341.07;1736461;82;21777;-55
2023/06/10 08:31:55;;;;;;;5.80;3.02;;;;;;;28.40;40.99;100347.03;1736225;82;21435;-56
2023/06/10 08:35:02;;;;;;;5.80;3.05;;;;;;;28.42;40.76;100339.95;1736278;82;21460;-56
2023/06/10 08:38:08;;;;;;;8.65;3.62;;;;;;;28.53;40.66;100340.73;1735812;82;21948;-55
2023/06/10 08:41:13;;;;;;;7.90;4.10;;;;;;;28.67;40.53;100341.77;1736487;82;21360;-56
2023/06/10 08:44:32;;;;;;;8.40;3.30;;;;;;;28.84;40.45;100340.75;1736128;82;21524;-57
2023/06/10 08:47:38;;;;;;;6.95;3.47;;;;;;;28.98;40.26;100338.91;1735768;82;21376;-55
2023/06/10 08:50:44;;;;;;;6.25;3.47;;;;;;;29.20;40.11;100342.08;1734779;82;21197;-55
2023/06/10 08:53:58;;;;;;;9.13;3.30;;;;;;;29.58;39.67;100336.82;1722519;82;21575;-56
2023/06/10 08:57:05;;;;;;;10.10;3.62;;;;;;;29.58;39.67;100336.82;1719428;83;22077;-56
2023/06/10 09:00:10;;;;;;;8.78;3.80;;;;;;;29.75;39.28;100337.78;1686010;84;21228;-55
2023/06/10 09:03:16;;;;;;;6.65;3.67;;;;;;;29.84;39.01;100328.33;1701361;82;21218;-56
2023/06/10 09:06:24;;;;;;;9.65;4.47;;;;;;;29.97;38.89;100323.31;1696988;84;21499;-58
2023/06/10 09:09:32;;;;;;;8.55;4.08;;;;;;;30.12;38.61;100327.34;1691915;83;21231;-56
2023/06/10 09:12:37;;;;;;;7.42;4.35;;;;;;;30.24;38.42;100323.49;1735275;82;21867;-56
2023/06/10 09:15:45;;;;;;;9.48;4.20;;;;;;;30.32;38.23;100323.36;1735611;82;21625;-55
2023/06/10 09:18:55;;;;;;;8.05;4.08;;;;;;;30.30;37.85;100320.84;1734495;82;21712;-56
2023/06/10 09:22:02;;;;;;;11.12;4.20;;;;;;;30.32;37.69;100327.03;1737674;81;21203;-56
2023/06/10 09:25:18;;;;;;;5.60;3.98;;;;;;;30.36;37.54;100320.20;1737423;81;21192;-57
2023/06/10 09:28:23;;;;;;;8.45;4.22;;;;;;;30.41;37.36;100317.30;1737269;81;21211;-57
2023/06/10 09:31:29;;;;;;;6.50;3.52;;;;;;;30.50;37.16;100315.44;1735916;82;21354;-57
2023/06/10 09:34:36;;;;;;;9.03;3.58;;;;;;;30.52;36.96;100315.98;1735168;82;21263;-57
2023/06/10 09:37:46;;;;;;;5.10;3.40;;;;;;;30.50;36.64;100310.64;1714681;82;21577;-56
2023/06/10 09:41:01;;;;;;;6.33;3.40;;;;;;;30.51;36.47;100310.05;1716798;81;21409;-56
2023/06/10 09:44:08;;;;;;;7.25;3.65;;;;;;;30.59;36.40;100303.69;1735219;82;21441;-54
2023/06/10 09:47:18;;;;;;;6.55;3.17;;;;;;;30.70;36.14;100304.36;1736372;82;21366;-57
2023/06/10 09:50:24;;;;;;;7.50;2.98;;;;;;;30.81;36.03;100301.05;1735769;82;21359;-57
2023/06/10 09:53:32;;;;;;;5.75;3.08;;;;;;;30.88;35.85;100290.75;1715994;82;21413;-55
2023/06/10 09:56:43;;;;;;;5.12;2.60;;;;;;;30.93;35.69;100279.34;1735249;82;21369;-57
2023/06/10 09:59:48;;;;;;;10.35;3.67;;;;;;;31.02;35.54;100284.53;1735150;82;21421;-54
2023/06/10 10:03:01;;;;;;;5.85;2.65;;;;;;;31.11;35.38;100275.60;1733740;82;21211;-56
2023/06/10 10:06:07;;;;;;;5.08;2.92;;;;;;;31.21;35.31;100279.05;1734186;82;21208;-52
2023/06/10 10:09:12;;;;;;;5.60;2.87;;;;;;;31.24;35.02;100271.95;1735058;82;21283;-55
2023/06/10 10:12:21;;;;;;;14.15;3.20;;;;;;;31.30;34.85;100263.61;1735329;82;21864;-54
2023/06/10 10:15:27;;;;;;;7.75;3.22;;;;;;;31.42;34.64;100268.17;1730086;81;21795;-54
2023/06/10 10:18:37;;;;;;;4.10;2.72;;;;;;;31.49;34.48;100257.28;1724913;82;21255;-55
2023/06/10 10:21:47;;;;;;;16.12;2.98;;;;;;;31.54;34.32;100255.76;1710103;82;21220;-58
2023/06/10 10:25:05;;;;;;;10.45;2.92;;;;;;;31.68;34.23;100259.39;1692657;84;21280;-58
2023/06/10 10:28:18;;;;;;;9.00;2.72;;;;;;;31.80;34.13;100248.34;1699963;84;21781;-58
2023/06/10 10:31:25;;;;;;;6.03;2.70;;;;;;;31.94;33.97;100253.41;1700192;84;21264;-55
2023/06/10 10:34:54;;;;;;;9.15;2.50;;;;;;;32.05;33.72;100249.17;1718377;82;21216;-57
2023/06/10 10:38:02;;;;;;;6.70;3.15;;;;;;;32.12;33.49;100252.41;1731510;82;21375;-57
2023/06/10 10:41:08;;;;;;;5.03;2.77;;;;;;;32.22;33.32;100250.75;1742913;81;21194;-57
2023/06/10 10:44:15;;;;;;;9.60;2.70;;;;;;;32.35;33.26;100245.57;1742131;81;21217;-56
2023/06/10 10:47:19;;;;;;;7.37;3.00;;;;;;;32.43;32.91;100241.98;1741289;81;21203;-56
2023/06/10 10:50:27;;;;;;;14.20;2.70;;;;;;;32.38;32.64;100235.03;1727511;83;21892;-55
2023/06/10 10:53:34;;;;;;;4.55;2.10;;;;;;;32.40;32.39;100241.22;1729175;82;21398;-55
2023/06/10 10:56:40;;;;;;;6.12;2.50;;;;;;;32.29;32.12;100235.53;1721155;82;21194;-56
2023/06/10 11:00:04;;;;;;;8.30;2.40;;;;;;;32.33;32.04;100235.16;1736788;81;21354;-54
2023/06/10 11:03:18;;;;;;;6.35;2.35;;;;;;;32.41;31.82;100234.41;1730395;81;21218;-55
2023/06/10 11:06:27;;;;;;;5.03;2.30;;;;;;;32.47;31.63;100233.11;1728210;82;21370;-55
2023/06/10 11:09:35;;;;;;;6.20;2.22;;;;;;;32.56;31.49;100229.73;1728599;82;21515;-56
2023/06/10 11:12:59;;;;;;;3.20;2.20;;;;;;;32.71;31.37;100222.82;1727461;82;21227;-57
2023/06/10 11:16:09;;;;;;;10.58;2.42;;;;;;;32.88;31.18;100227.15;1729287;82;21574;-57
2023/06/10 11:19:15;;;;;;;6.78;2.70;;;;;;;32.98;30.90;100230.55;1709098;83;21188;-58
2023/06/10 11:22:28;;;;;;;3.42;2.35;;;;;;;33.06;30.75;100226.91;1727217;82;21903;-56
2023/06/10 11:25:38;;;;;;;5.83;2.52;;;;;;;33.17;30.54;100226.87;1712895;82;22151;-55
2023/06/10 11:28:43;;;;;;;6.70;2.40;;;;;;;33.26;30.35;100222.08;1728565;83;21366;-56
2023/06/10 11:31:55;;;;;;;7.10;2.17;;;;;;;33.17;30.02;100220.37;1729176;83;21197;-56
2023/06/10 11:35:01;;;;;;;8.03;2.77;;;;;;;32.96;29.64;100222.98;1729078;83;21177;-57
2023/06/10 11:38:07;;;;;;;6.50;3.00;;;;;;;32.87;29.65;100222.05;1728835;83;21399;-56
2023/06/10 11:41:13;;;;;;;7.40;2.62;;;;;;;32.81;29.59;100219.11;1728905;83;21895;-55
2023/06/10 11:44:22;;;;;;;8.28;2.42;;;;;;;32.79;29.52;100226.28;1728718;83;21406;-56
2023/06/10 11:47:29;;;;;;;8.68;2.62;;;;;;;32.74;29.40;100216.49;1728852;83;21843;-56
2023/06/10 11:50:42;;;;;;;8.10;2.55;;;;;;;32.68;29.26;100222.06;1728369;82;21430;-57
2023/06/10 11:53:47;;;;;;;10.43;2.47;;;;;;;32.70;29.32;100216.87;1728714;83;21385;-56
2023/06/10 11:56:54;;;;;;;5.80;2.40;;;;;;;32.77;29.25;100211.02;1728407;82;21366;-57
2023/06/10 12:00:00;;;;;;;7.28;3.12;;;;;;;32.71;28.98;100205.81;1728543;83;22002;-57
2023/06/10 12:03:07;;;;;;;9.13;2.60;;;;;;;32.63;28.84;100208.86;1730407;82;21441;-57
2023/06/10 12:06:14;;;;;;;7.05;2.50;;;;;;;32.52;28.66;100208.03;1712892;83;21220;-57
2023/06/10 12:09:26;;;;;;;6.53;2.60;;;;;;;32.42;28.54;100202.63;1715384;82;21658;-57
2023/06/10 12:12:34;;;;;;;7.35;2.80;;;;;;;32.42;28.62;100206.31;1728938;81;21347;-57
2023/06/10 12:15:41;;;;;;;7.92;2.62;;;;;;;32.48;28.60;100196.51;1728389;83;21371;-56
2023/06/10 12:18:46;;;;;;;8.85;2.72;;;;;;;32.48;28.51;100187.16;1728396;83;22002;-55
2023/06/10 12:21:53;;;;;;;4.78;2.33;;;;;;;32.41;28.38;100186.80;1727705;83;21370;-55
2023/06/10 12:25:10;;;;;;;4.90;2.58;;;;;;;32.28;28.20;100185.69;1672792;86;21884;-56
2023/06/10 12:28:20;;;;;;;6.72;2.58;;;;;;;32.20;28.16;100190.72;1700234;84;21236;-56
2023/06/10 12:31:26;;;;;;;5.53;2.55;;;;;;;32.14;28.17;100182.10;1738473;82;22199;-54
2023/06/10 12:34:45;;;;;;;4.05;2.12;;;;;;;32.13;28.20;100183.24;1738073;82;21892;-57
2023/06/10 12:38:11;;;;;;;5.87;2.62;;;;;;;32.18;28.21;100173.20;1738254;82;21350;-56
2023/06/10 12:41:17;;;;;;;7.30;3.02;;;;;;;32.22;28.13;100165.73;1738649;82;21919;-55
2023/06/10 12:44:22;;;;;;;3.98;2.45;;;;;;;32.19;28.06;100169.80;1723140;82;21375;-54
2023/06/10 12:47:28;;;;;;;4.65;2.35;;;;;;;32.09;27.98;100158.15;1710365;84;21943;-55
2023/06/10 12:50:34;;;;;;;13.83;2.33;;;;;;;32.05;27.97;100158.52;1697983;82;21421;-56
2023/06/10 12:53:40;;;;;;;6.62;2.55;;;;;;;32.04;28.01;100159.69;1738461;82;21247;-55
2023/06/10 12:56:47;;;;;;;6.65;2.47;;;;;;;32.01;27.98;100157.51;1737906;82;21231;-56
2023/06/10 12:59:57;;;;;;;7.40;2.15;;;;;;;31.95;27.95;100155.37;1738667;82;21946;-56
2023/06/10 13:03:07;;;;;;;9.07;3.20;;;;;;;31.87;27.93;100145.41;1738640;82;21774;-57
2023/06/10 13:06:13;;;;;;;6.40;2.60;;;;;;;31.82;27.89;100144.09;1738942;82;21366;-56
2023/06/10 13:09:19;;;;;;;5.17;2.40;;;;;;;31.76;27.86;100143.97;1736217;82;21215;-57
2023/06/10 13:12:24;;;;;;;5.05;2.50;;;;;;;31.69;27.82;100142.99;1743327;82;21377;-55
2023/06/10 13:15:35;;;;;;;5.33;2.42;;;;;;;31.68;27.89;100140.48;1743285;81;22089;-56
2023/06/10 13:18:42;;;;;;;7.10;2.60;;;;;;;31.71;27.99;100135.59;1738873;82;21394;-56
2023/06/10 13:21:49;;;;;;;8.25;2.65;;;;;;;31.77;28.04;100135.15;1738718;82;21397;-57
2023/06/10 13:24:55;;;;;;;8.55;2.62;;;;;;;31.81;28.10;100138.99;1711463;82;21355;-57
2023/06/10 13:28:01;;;;;;;8.10;3.10;;;;;;;31.85;28.10;100143.47;1705395;84;21393;-57
2023/06/10 13:31:05;;;;;;;5.75;2.30;;;;;;;31.85;28.04;100138.66;1705150;84;21211;-59
2023/06/10 13:34:12;;;;;;;7.78;2.80;;;;;;;31.80;27.96;100137.91;1705064;84;21255;-57
2023/06/10 13:37:17;;;;;;;9.55;2.95;;;;;;;31.79;27.98;100136.23;1705170;84;21966;-57
2023/06/10 13:40:24;;;;;;;9.05;2.98;;;;;;;31.86;28.01;100140.89;1705080;84;21267;-58
2023/06/10 13:43:30;;;;;;;5.60;2.90;;;;;;;31.89;27.87;100131.75;1704838;84;21748;-56
2023/06/10 13:46:37;;;;;;;5.65;2.55;;;;;;;31.87;27.87;100135.50;1704675;83;21218;-56
2023/06/10 13:49:45;;;;;;;8.90;2.62;;;;;;;31.80;27.79;100133.08;1704884;84;21217;-55
2023/06/10 13:52:51;;;;;;;14.83;2.83;;;;;;;31.71;27.79;100129.93;1705309;82;21358;-55
2023/06/10 13:55:59;;;;;;;12.07;2.92;;;;;;;31.73;27.83;100127.63;1705718;84;21347;-56
2023/06/10 13:59:06;;;;;;;5.78;2.80;;;;;;;31.81;27.92;100116.91;1705642;84;21358;-56
2023/06/10 14:02:14;;;;;;;7.55;2.90;;;;;;;31.89;27.97;100114.75;1707945;83;21164;-57
2023/06/10 14:05:21;;;;;;;5.25;2.50;;;;;;;31.97;28.00;100112.56;1707750;83;21223;-58
2023/06/10 14:08:30;;;;;;;6.22;2.72;;;;;;;32.00;27.98;100103.41;1698659;83;21773;-57
2023/06/10 14:11:35;;;;;;;10.72;2.77;;;;;;;31.92;27.91;100100.79;1691347;83;21224;-57
2023/06/10 14:14:43;;;;;;;5.97;2.95;;;;;;;31.78;27.86;100099.16;1688963;83;21224;-57
2023/06/10 14:17:50;;;;;;;5.80;3.20;;;;;;;31.56;27.81;100100.00;1697145;83;21203;-55
2023/06/10 14:20:57;;;;;;;10.28;2.80;;;;;;;31.41;27.93;100103.19;1675218;83;21410;-55
2023/06/10 14:24:03;;;;;;;7.70;2.58;;;;;;;31.30;27.96;100098.08;1645341;86;21254;-56
2023/06/10 14:27:09;;;;;;;8.83;2.60;;;;;;;31.19;27.98;100103.12;1718216;83;21213;-55